createdAt,value
2022-12-28T00:00:10.092Z,6.50
2022-12-28T00:00:20.946Z,5.30
2022-12-28T00:00:32.069Z,5.10
2022-12-28T00:00:43.041Z,4.20
2022-12-28T00:00:53.804Z,4.20
2022-12-28T00:01:04.900Z,4.10
2022-12-28T00:01:15.895Z,5.10
2022-12-28T00:01:26.656Z,5.40
2022-12-28T00:01:37.779Z,5.40
2022-12-28T00:01:48.798Z,4.70
2022-12-28T00:01:59.616Z,4.90
2022-12-28T00:02:10.732Z,5.30
2022-12-28T00:02:21.300Z,4.90
2022-12-28T00:02:32.122Z,4.20
2022-12-28T00:02:43.204Z,5.30
2022-12-28T00:02:54.190Z,5.40
2022-12-28T00:03:05.059Z,6.50
2022-12-28T00:03:15.653Z,5.50
2022-12-28T00:03:26.628Z,4.80
2022-12-28T00:03:37.426Z,4.00
2022-12-28T00:03:48.484Z,4.40
2022-12-28T00:03:59.517Z,5.00
2022-12-28T00:04:10.265Z,5.80
2022-12-28T00:04:21.343Z,5.90
2022-12-28T00:04:32.329Z,5.50
2022-12-28T00:04:43.130Z,4.60
2022-12-28T00:04:54.203Z,4.60
2022-12-28T00:05:05.207Z,5.80
2022-12-28T00:05:15.985Z,5.60
2022-12-28T00:05:27.064Z,4.70
2022-12-28T00:05:38.053Z,4.00
2022-12-28T00:05:48.840Z,4.40
2022-12-28T00:05:59.936Z,4.50
2022-12-28T00:06:10.921Z,3.80
2022-12-28T00:06:21.701Z,3.70
2022-12-28T00:06:32.804Z,4.00
2022-12-28T00:06:43.800Z,5.20
2022-12-28T00:06:54.575Z,5.10
2022-12-28T00:07:05.652Z,4.90
2022-12-28T00:07:16.654Z,4.40
2022-12-28T00:07:27.439Z,4.60
2022-12-28T00:07:38.512Z,4.30
2022-12-28T00:07:49.333Z,4.40
2022-12-28T00:08:00.107Z,4.60
2022-12-28T00:08:11.204Z,4.20
2022-12-28T00:08:22.199Z,5.30
2022-12-28T00:08:32.984Z,5.50
2022-12-28T00:08:44.050Z,5.20
2022-12-28T00:08:55.076Z,4.80
2022-12-28T00:09:05.836Z,4.60
2022-12-28T00:09:16.909Z,5.60
2022-12-28T00:09:27.916Z,5.30
2022-12-28T00:09:38.725Z,4.70
2022-12-28T00:09:49.777Z,5.30
2022-12-28T00:10:00.785Z,5.60
2022-12-28T00:10:11.581Z,5.00
2022-12-28T00:11:07.536Z,5.00
2022-12-28T00:11:07.688Z,4.40
2022-12-28T00:11:08.724Z,5.00
2022-12-28T00:11:09.073Z,4.80
2022-12-28T00:11:11.296Z,4.20
2022-12-28T00:11:27.596Z,4.00
2022-12-28T00:11:31.246Z,3.70
2022-12-28T00:11:39.068Z,4.10
2022-12-28T00:11:49.877Z,6.00
2022-12-28T00:12:00.417Z,6.30
2022-12-28T00:12:11.412Z,6.40
2022-12-28T00:12:22.211Z,4.60
2022-12-28T00:12:32.737Z,5.90
2022-12-28T00:12:43.733Z,5.40
2022-12-28T00:12:54.517Z,5.50
2022-12-28T00:13:05.600Z,3.80
2022-12-28T00:13:16.628Z,3.40
2022-12-28T00:13:27.435Z,4.00
2022-12-28T00:13:38.517Z,3.90
2022-12-28T00:13:49.482Z,3.50
2022-12-28T00:14:00.304Z,3.30
2022-12-28T00:14:10.898Z,3.30
2022-12-28T00:14:21.887Z,3.60
2022-12-28T00:14:32.685Z,4.20
2022-12-28T00:14:43.751Z,4.20
2022-12-28T00:14:54.494Z,3.80
2022-12-28T00:15:05.335Z,4.10
2022-12-28T00:15:15.903Z,4.40
2022-12-28T00:15:26.914Z,4.20
2022-12-28T00:15:37.695Z,3.50
2022-12-28T00:15:48.815Z,4.70
2022-12-28T00:15:59.331Z,4.50
2022-12-28T00:16:10.189Z,4.70
2022-12-28T00:16:20.718Z,3.50
2022-12-28T00:16:31.797Z,4.00
2022-12-28T00:16:42.606Z,3.60
2022-12-28T00:16:53.676Z,3.60
2022-12-28T00:17:04.654Z,3.40
2022-12-28T00:17:15.439Z,3.50
2022-12-28T00:17:26.507Z,3.90
2022-12-28T00:17:37.491Z,3.80
2022-12-28T00:17:48.301Z,3.80
2022-12-28T00:17:59.352Z,4.20
2022-12-28T00:18:10.357Z,4.20
2022-12-28T00:18:21.395Z,5.10
2022-12-28T00:18:31.930Z,5.20
2022-12-28T00:18:42.934Z,4.70
2022-12-28T00:18:53.741Z,4.90
2022-12-28T00:19:04.818Z,4.70
2022-12-28T00:19:15.797Z,4.50
2022-12-28T00:19:26.617Z,4.90
2022-12-28T00:19:37.673Z,5.40
2022-12-28T00:19:48.675Z,6.20
2022-12-28T00:19:59.475Z,6.00
2022-12-28T00:20:10.540Z,5.50
2022-12-28T00:20:21.533Z,4.30
2022-12-28T00:20:32.335Z,3.80
2022-12-28T00:20:43.380Z,3.60
2022-12-28T00:20:54.388Z,3.60
2022-12-28T00:21:05.170Z,3.40
2022-12-28T00:21:16.236Z,3.20
2022-12-28T00:21:27.249Z,4.10
2022-12-28T00:21:38.044Z,4.80
2022-12-28T00:21:49.092Z,5.30
2022-12-28T00:22:00.101Z,5.20
2022-12-28T00:22:10.882Z,4.90
2022-12-28T00:22:21.953Z,4.70
2022-12-28T00:22:32.945Z,4.90
2022-12-28T00:22:43.743Z,4.80
2022-12-28T00:22:54.800Z,4.10
2022-12-28T00:23:05.780Z,3.80
2022-12-28T00:23:16.565Z,3.70
2022-12-28T00:23:27.652Z,3.70
2022-12-28T00:23:38.640Z,4.20
2022-12-28T00:23:49.452Z,4.60
2022-12-28T00:24:00.536Z,5.00
2022-12-28T00:24:11.488Z,4.70
2022-12-28T00:24:22.301Z,4.00
2022-12-28T00:24:33.350Z,5.00
2022-12-28T00:24:44.337Z,5.40
2022-12-28T00:24:55.130Z,5.00
2022-12-28T00:25:06.214Z,4.10
2022-12-28T00:25:17.175Z,4.80
2022-12-28T00:25:27.974Z,4.80
2022-12-28T00:25:39.046Z,4.80
2022-12-28T00:25:50.034Z,3.40
2022-12-28T00:26:00.829Z,3.10
2022-12-28T00:26:11.898Z,4.00
2022-12-28T00:26:22.881Z,4.00
2022-12-28T00:26:33.682Z,3.90
2022-12-28T00:26:44.754Z,3.70
2022-12-28T00:26:55.745Z,3.30
2022-12-28T00:27:06.523Z,3.70
2022-12-28T00:27:17.599Z,3.30
2022-12-28T00:27:28.597Z,3.30
2022-12-28T00:27:39.375Z,3.90
2022-12-28T00:27:50.439Z,4.00
2022-12-28T00:28:01.439Z,3.80
2022-12-28T00:28:12.227Z,3.60
2022-12-28T00:28:23.289Z,3.90
2022-12-28T00:28:34.306Z,4.50
2022-12-28T00:28:45.091Z,4.50
2022-12-28T00:29:03.665Z,4.60
2022-12-28T00:29:08.198Z,4.50
2022-12-28T00:29:17.805Z,5.00
2022-12-28T00:29:28.897Z,4.80
2022-12-28T00:29:39.880Z,4.70
2022-12-28T00:29:50.656Z,3.80
2022-12-28T00:30:01.768Z,4.60
2022-12-28T00:30:12.721Z,5.00
2022-12-28T00:30:23.510Z,4.80
2022-12-28T00:30:34.571Z,3.60
2022-12-28T00:30:45.602Z,3.20
2022-12-28T00:30:56.478Z,3.30
2022-12-28T00:31:07.587Z,3.50
2022-12-28T00:31:18.567Z,3.60
2022-12-28T00:31:29.331Z,3.50
2022-12-28T00:31:40.430Z,3.50
2022-12-28T00:31:51.539Z,3.90
2022-12-28T00:32:02.436Z,3.90
2022-12-28T00:32:12.973Z,3.90
2022-12-28T00:32:23.996Z,4.20
2022-12-28T00:32:34.755Z,4.20
2022-12-28T00:32:45.811Z,4.30
2022-12-28T00:32:56.809Z,4.40
2022-12-28T00:33:07.598Z,5.00
2022-12-28T00:33:18.651Z,5.20
2022-12-28T00:33:29.637Z,5.00
2022-12-28T00:33:40.452Z,5.50
2022-12-28T00:33:51.004Z,6.00
2022-12-28T00:34:02.013Z,6.00
2022-12-28T00:34:12.761Z,4.30
2022-12-28T00:34:23.841Z,3.80
2022-12-28T00:34:34.821Z,3.30
2022-12-28T00:34:45.607Z,3.60
2022-12-28T00:34:56.664Z,3.60
2022-12-28T00:35:07.661Z,3.80
2022-12-28T00:35:18.446Z,4.10
2022-12-28T00:35:29.513Z,4.10
2022-12-28T00:35:40.522Z,3.90
2022-12-28T00:35:51.289Z,3.90
2022-12-28T00:36:02.371Z,3.60
2022-12-28T00:36:13.351Z,3.30
2022-12-28T00:36:24.163Z,3.70
2022-12-28T00:37:08.253Z,3.50
2022-12-28T00:37:08.837Z,3.70
2022-12-28T00:37:10.050Z,3.80
2022-12-28T00:37:12.984Z,3.40
2022-12-28T00:37:18.940Z,3.40
2022-12-28T00:37:29.737Z,4.60
2022-12-28T00:37:40.805Z,5.20
2022-12-28T00:37:51.790Z,5.60
2022-12-28T00:38:02.573Z,4.90
2022-12-28T00:38:13.687Z,4.10
2022-12-28T00:38:24.677Z,3.20
2022-12-28T00:38:35.471Z,2.70
2022-12-28T00:38:46.564Z,3.20
2022-12-28T00:38:57.542Z,3.60
2022-12-28T00:39:08.333Z,3.70
2022-12-28T00:39:19.395Z,3.80
2022-12-28T00:39:30.402Z,3.80
2022-12-28T00:39:41.201Z,3.80
2022-12-28T00:39:52.301Z,3.60
2022-12-28T00:40:03.261Z,3.80
2022-12-28T00:40:18.891Z,4.30
2022-12-28T00:40:26.126Z,4.50
2022-12-28T00:40:36.059Z,4.90
2022-12-28T00:40:46.833Z,4.30
2022-12-28T00:40:57.901Z,3.20
2022-12-28T00:41:08.929Z,3.60
2022-12-28T00:41:19.695Z,3.50
2022-12-28T00:41:30.824Z,3.60
2022-12-28T00:41:41.781Z,3.20
2022-12-28T00:41:52.580Z,3.30
2022-12-28T00:42:03.638Z,3.50
2022-12-28T00:42:14.620Z,3.30
2022-12-28T00:42:25.413Z,3.60
2022-12-28T00:42:36.482Z,3.90
2022-12-28T00:42:47.463Z,4.10
2022-12-28T00:42:58.262Z,3.80
2022-12-28T00:43:09.340Z,4.00
2022-12-28T00:43:20.315Z,3.80
2022-12-28T00:43:31.097Z,3.80
2022-12-28T00:43:42.164Z,3.80
2022-12-28T00:43:53.171Z,4.00
2022-12-28T00:44:03.960Z,3.90
2022-12-28T00:44:15.058Z,3.80
2022-12-28T00:44:26.042Z,3.70
2022-12-28T00:44:36.806Z,3.50
2022-12-28T00:44:47.894Z,4.30
2022-12-28T00:44:58.860Z,3.70
2022-12-28T00:45:09.652Z,4.10
2022-12-28T00:45:20.738Z,3.70
2022-12-28T00:45:31.814Z,3.40
2022-12-28T00:45:42.586Z,3.40
2022-12-28T00:45:53.715Z,3.40
2022-12-28T00:46:04.686Z,3.60
2022-12-28T00:46:15.505Z,4.10
2022-12-28T00:46:26.529Z,4.20
2022-12-28T00:46:37.547Z,4.00
2022-12-28T00:46:48.325Z,4.00
2022-12-28T00:46:59.395Z,3.50
2022-12-28T00:47:10.397Z,3.80
2022-12-28T00:47:21.191Z,3.70
2022-12-28T00:47:32.260Z,3.60
2022-12-28T00:47:43.260Z,3.50
2022-12-28T00:47:54.036Z,4.00
2022-12-28T00:48:05.110Z,4.70
2022-12-28T00:48:16.124Z,4.70
2022-12-28T00:48:26.895Z,4.30
2022-12-28T00:48:37.964Z,3.80
2022-12-28T00:48:48.961Z,3.20
2022-12-28T00:48:59.796Z,3.50
2022-12-28T00:49:10.299Z,4.90
2022-12-28T00:49:21.298Z,5.90
2022-12-28T00:49:32.078Z,5.60
2022-12-28T00:49:43.173Z,4.50
2022-12-28T00:49:54.148Z,3.30
2022-12-28T00:50:04.952Z,3.50
2022-12-28T00:50:16.009Z,3.50
2022-12-28T00:50:26.994Z,3.40
2022-12-28T00:50:37.772Z,4.00
2022-12-28T00:50:48.856Z,4.80
2022-12-28T00:50:59.844Z,4.90
2022-12-28T00:51:10.637Z,4.70
2022-12-28T00:51:21.701Z,3.90
2022-12-28T00:51:32.704Z,4.80
2022-12-28T00:51:43.502Z,4.50
2022-12-28T00:51:54.553Z,5.00
2022-12-28T00:52:05.542Z,4.20
2022-12-28T00:52:16.339Z,4.20
2022-12-28T00:52:27.405Z,3.90
2022-12-28T00:52:38.414Z,4.40
2022-12-28T00:52:49.195Z,5.10
2022-12-28T00:53:00.256Z,5.20
2022-12-28T00:53:11.272Z,4.40
2022-12-28T00:53:22.054Z,4.40
2022-12-28T00:53:33.128Z,4.00
2022-12-28T00:53:44.132Z,4.30
2022-12-28T00:53:54.931Z,4.10
2022-12-28T00:54:06.073Z,4.30
2022-12-28T00:54:17.034Z,4.30
2022-12-28T00:54:27.822Z,4.10
2022-12-28T00:54:38.903Z,3.60
2022-12-28T00:54:49.885Z,3.00
2022-12-28T00:55:00.673Z,3.20
2022-12-28T00:55:11.733Z,4.00
2022-12-28T00:55:22.736Z,4.90
2022-12-28T00:55:33.514Z,4.10
2022-12-28T00:55:44.594Z,3.90
2022-12-28T00:55:55.582Z,3.40
2022-12-28T00:56:06.375Z,3.50
2022-12-28T00:56:17.483Z,3.50
2022-12-28T00:56:28.449Z,3.90
2022-12-28T00:56:39.229Z,4.10
2022-12-28T00:56:50.307Z,3.80
2022-12-28T00:57:01.290Z,4.60
2022-12-28T00:57:12.121Z,5.10
2022-12-28T00:57:23.168Z,4.20
2022-12-28T00:57:34.151Z,4.10
2022-12-28T00:57:44.942Z,3.60
2022-12-28T00:57:56.018Z,3.50
2022-12-28T00:58:07.006Z,4.10
2022-12-28T00:58:17.793Z,4.10
2022-12-28T00:58:28.878Z,4.20
2022-12-28T00:58:39.903Z,4.10
2022-12-28T00:58:50.697Z,4.00
2022-12-28T00:59:01.784Z,5.00
2022-12-28T00:59:12.808Z,4.90
2022-12-28T00:59:23.587Z,5.00
2022-12-28T00:59:34.674Z,3.20
2022-12-28T00:59:45.649Z,3.70
2022-12-28T00:59:56.441Z,3.60
2022-12-28T01:00:07.523Z,3.40
2022-12-28T01:00:18.653Z,3.70
2022-12-28T01:00:29.434Z,4.60
2022-12-28T01:00:40.542Z,4.80
2022-12-28T01:00:51.539Z,4.50
2022-12-28T01:01:02.452Z,4.80
2022-12-28T01:01:13.079Z,5.30
2022-12-28T01:01:23.642Z,4.40
2022-12-28T01:01:34.602Z,3.90
2022-12-28T01:01:45.279Z,3.20
2022-12-28T01:01:55.960Z,3.90
2022-12-28T01:02:06.902Z,4.50
2022-12-28T01:02:17.466Z,4.10
2022-12-28T01:02:28.444Z,3.90
2022-12-28T01:02:39.222Z,4.20
2022-12-28T01:02:50.325Z,4.10
2022-12-28T01:03:01.329Z,4.30
2022-12-28T01:03:12.097Z,3.90
2022-12-28T01:03:23.150Z,3.80
2022-12-28T01:03:34.161Z,3.80
2022-12-28T01:03:44.952Z,4.00
2022-12-28T01:03:55.499Z,4.60
2022-12-28T01:04:06.558Z,4.90
2022-12-28T01:04:17.352Z,5.30
2022-12-28T01:04:27.892Z,4.10
2022-12-28T01:04:38.884Z,3.70
2022-12-28T01:04:49.671Z,3.60
2022-12-28T01:05:00.722Z,4.50
2022-12-28T01:05:11.711Z,4.10
2022-12-28T01:05:22.502Z,3.90
2022-12-28T01:05:33.563Z,3.60
2022-12-28T01:05:44.554Z,3.70
2022-12-28T01:05:55.349Z,3.20
2022-12-28T01:06:06.419Z,3.30
2022-12-28T01:06:17.407Z,3.50
2022-12-28T01:06:28.259Z,3.40
2022-12-28T01:06:38.767Z,3.30
2022-12-28T01:06:49.736Z,3.40
2022-12-28T01:07:00.538Z,3.00
2022-12-28T01:07:11.604Z,4.20
2022-12-28T01:07:22.603Z,4.30
2022-12-28T01:07:33.410Z,4.70
2022-12-28T01:07:44.465Z,3.70
2022-12-28T01:07:55.444Z,3.50
2022-12-28T01:08:06.247Z,2.90
2022-12-28T01:08:17.330Z,3.20
2022-12-28T01:08:28.311Z,3.80
2022-12-28T01:08:39.095Z,4.00
2022-12-28T01:08:50.202Z,3.70
2022-12-28T01:09:01.169Z,2.80
2022-12-28T01:09:11.953Z,3.20
2022-12-28T01:09:23.075Z,3.30
2022-12-28T01:09:34.040Z,3.40
2022-12-28T01:09:44.833Z,3.40
2022-12-28T01:09:55.938Z,3.00
2022-12-28T01:10:06.921Z,2.80
2022-12-28T01:10:17.723Z,2.80
2022-12-28T01:10:28.809Z,3.30
2022-12-28T01:10:39.822Z,3.80
2022-12-28T01:10:50.589Z,3.90
2022-12-28T01:11:01.672Z,3.10
2022-12-28T01:11:12.651Z,3.10
2022-12-28T01:11:23.450Z,3.50
2022-12-28T01:11:34.531Z,3.60
2022-12-28T01:11:45.518Z,4.00
2022-12-28T01:11:56.310Z,3.40
2022-12-28T01:12:07.378Z,4.40
2022-12-28T01:12:18.369Z,3.90
2022-12-28T01:12:34.597Z,3.90
2022-12-28T01:12:41.232Z,2.80
2022-12-28T01:12:51.146Z,3.00
2022-12-28T01:13:01.954Z,2.90
2022-12-28T01:13:13.022Z,2.90
2022-12-28T01:13:24.005Z,2.90
2022-12-28T01:13:34.800Z,3.30
2022-12-28T01:13:45.901Z,4.40
2022-12-28T01:13:56.863Z,4.10
2022-12-28T01:14:07.647Z,3.40
2022-12-28T01:14:18.719Z,2.90
2022-12-28T01:14:29.748Z,3.10
2022-12-28T01:14:40.535Z,2.70
2022-12-28T01:14:51.606Z,2.80
2022-12-28T01:15:02.589Z,3.00
2022-12-28T01:15:13.392Z,3.40
2022-12-28T01:15:24.497Z,3.40
2022-12-28T01:15:35.465Z,3.10
2022-12-28T01:15:46.261Z,3.90
2022-12-28T01:15:57.323Z,4.10
2022-12-28T01:16:08.355Z,4.50
2022-12-28T01:16:19.143Z,4.10
2022-12-28T01:16:30.257Z,4.00
2022-12-28T01:16:40.812Z,2.70
2022-12-28T01:16:51.400Z,2.80
2022-12-28T01:17:02.186Z,2.90
2022-12-28T01:17:13.185Z,2.90
2022-12-28T01:17:23.996Z,2.60
2022-12-28T01:17:35.065Z,2.90
2022-12-28T01:17:46.065Z,2.90
2022-12-28T01:17:56.850Z,3.40
2022-12-28T01:18:07.970Z,3.40
2022-12-28T01:18:18.738Z,3.00
2022-12-28T01:18:29.495Z,3.20
2022-12-28T01:18:40.569Z,3.50
2022-12-28T01:18:51.212Z,4.90
2022-12-28T01:19:01.849Z,4.30
2022-12-28T01:19:12.945Z,3.90
2022-12-28T01:19:23.919Z,2.80
2022-12-28T01:19:34.734Z,3.70
2022-12-28T01:19:51.964Z,3.60
2022-12-28T01:19:57.297Z,3.30
2022-12-28T01:20:06.922Z,2.70
2022-12-28T01:20:18.000Z,3.20
2022-12-28T01:20:28.977Z,3.50
2022-12-28T01:20:39.768Z,2.90
2022-12-28T01:20:50.835Z,3.20
2022-12-28T01:21:01.839Z,3.40
2022-12-28T01:21:12.625Z,3.40
2022-12-28T01:21:23.703Z,3.20
2022-12-28T01:21:34.679Z,3.20
2022-12-28T01:21:45.487Z,3.10
2022-12-28T01:21:56.548Z,3.50
2022-12-28T01:22:07.548Z,3.10
2022-12-28T01:22:18.361Z,3.00
2022-12-28T01:22:28.895Z,3.80
2022-12-28T01:22:39.952Z,3.30
2022-12-28T01:22:50.706Z,3.30
2022-12-28T01:23:01.798Z,2.80
2022-12-28T01:23:12.776Z,2.60
2022-12-28T01:23:23.591Z,2.70
2022-12-28T01:23:34.650Z,2.40
2022-12-28T01:23:45.625Z,3.10
2022-12-28T01:23:56.406Z,3.90
2022-12-28T01:24:07.500Z,3.90
2022-12-28T01:24:18.477Z,3.20
2022-12-28T01:24:29.274Z,1.80
2022-12-28T01:24:40.381Z,2.10
2022-12-28T01:24:51.351Z,3.60
2022-12-28T01:25:02.163Z,4.10
2022-12-28T01:25:13.229Z,3.80
2022-12-28T01:25:24.194Z,2.80
2022-12-28T01:25:34.988Z,2.50
2022-12-28T01:25:46.073Z,2.80
2022-12-28T01:25:57.043Z,2.60
2022-12-28T01:26:07.837Z,2.70
2022-12-28T01:26:18.903Z,3.10
2022-12-28T01:26:29.890Z,2.90
2022-12-28T01:26:40.691Z,3.50
2022-12-28T01:26:51.780Z,3.20
2022-12-28T01:27:02.753Z,3.10
2022-12-28T01:27:13.539Z,2.60
2022-12-28T01:27:24.613Z,3.30
2022-12-28T01:27:35.586Z,3.00
2022-12-28T01:27:46.394Z,3.30
2022-12-28T01:27:57.459Z,3.00
2022-12-28T01:28:08.433Z,3.10
2022-12-28T01:28:19.214Z,2.90
2022-12-28T01:28:30.284Z,2.80
2022-12-28T01:28:41.274Z,3.10
2022-12-28T01:28:52.051Z,2.90
2022-12-28T01:29:03.133Z,2.60
2022-12-28T01:29:14.120Z,2.80
2022-12-28T01:29:24.911Z,2.90
2022-12-28T01:29:35.985Z,3.00
2022-12-28T01:29:46.977Z,2.70
2022-12-28T01:29:57.783Z,2.60
2022-12-28T01:30:08.843Z,2.30
2022-12-28T01:30:19.829Z,2.20
2022-12-28T01:30:30.615Z,2.40
2022-12-28T01:30:41.703Z,2.30
2022-12-28T01:30:52.817Z,2.70
2022-12-28T01:31:03.546Z,2.30
2022-12-28T01:31:14.624Z,2.40
2022-12-28T01:31:25.649Z,3.00
2022-12-28T01:31:36.402Z,3.50
2022-12-28T01:31:47.544Z,3.70
2022-12-28T01:31:58.078Z,2.60
2022-12-28T01:32:08.929Z,2.20
2022-12-28T01:32:19.423Z,2.20
2022-12-28T01:32:30.422Z,2.50
2022-12-28T01:32:41.203Z,2.80
2022-12-28T01:32:52.275Z,3.10
2022-12-28T01:33:03.266Z,3.80
2022-12-28T01:33:14.057Z,3.40
2022-12-28T01:33:25.109Z,2.90
2022-12-28T01:33:36.103Z,2.60
2022-12-28T01:33:46.891Z,2.80
2022-12-28T01:33:57.980Z,3.00
2022-12-28T01:34:08.986Z,3.00
2022-12-28T01:34:19.779Z,3.00
2022-12-28T01:34:30.832Z,2.80
2022-12-28T01:34:41.804Z,3.20
2022-12-28T01:34:52.624Z,3.20
2022-12-28T01:35:03.148Z,3.30
2022-12-28T01:35:14.143Z,3.00
2022-12-28T01:35:24.928Z,3.20
2022-12-28T01:35:36.008Z,3.00
2022-12-28T01:35:46.994Z,3.10
2022-12-28T01:35:57.845Z,3.10
2022-12-28T01:36:08.313Z,3.30
2022-12-28T01:36:19.311Z,3.20
2022-12-28T01:36:30.088Z,2.70
2022-12-28T01:36:41.174Z,2.80
2022-12-28T01:36:52.190Z,3.80
2022-12-28T01:37:03.003Z,3.70
2022-12-28T01:37:13.516Z,3.30
2022-12-28T01:37:24.500Z,2.70
2022-12-28T01:37:35.296Z,2.70
2022-12-28T01:37:46.369Z,3.00
2022-12-28T01:37:57.345Z,3.00
2022-12-28T01:38:08.137Z,2.60
2022-12-28T01:38:19.196Z,3.10
2022-12-28T01:38:30.191Z,3.40
2022-12-28T01:38:40.999Z,3.40
2022-12-28T01:38:52.063Z,3.30
2022-12-28T01:39:03.062Z,3.00
2022-12-28T01:39:13.858Z,4.10
2022-12-28T01:39:24.921Z,3.60
2022-12-28T01:39:35.917Z,3.40
2022-12-28T01:39:46.720Z,3.70
2022-12-28T01:39:57.813Z,3.60
2022-12-28T01:40:08.806Z,3.60
2022-12-28T01:40:19.597Z,2.60
2022-12-28T01:40:30.653Z,2.80
2022-12-28T01:40:41.659Z,2.90
2022-12-28T01:40:52.443Z,2.60
2022-12-28T01:41:02.997Z,2.70
2022-12-28T01:41:13.982Z,3.80
2022-12-28T01:41:24.789Z,3.20
2022-12-28T01:41:35.855Z,4.60
2022-12-28T01:41:46.849Z,3.50
2022-12-28T01:41:57.622Z,4.10
2022-12-28T01:42:08.709Z,2.80
2022-12-28T01:42:19.682Z,2.50
2022-12-28T01:42:30.470Z,2.40
2022-12-28T01:42:41.538Z,2.40
2022-12-28T01:42:52.538Z,2.60
2022-12-28T01:43:03.323Z,2.60
2022-12-28T01:43:14.390Z,2.90
2022-12-28T01:43:29.929Z,3.00
2022-12-28T01:43:36.476Z,3.30
2022-12-28T01:43:47.540Z,2.50
2022-12-28T01:43:58.540Z,2.30
2022-12-28T01:44:09.317Z,5.20
2022-12-28T01:44:20.406Z,5.40
2022-12-28T01:44:31.403Z,3.10
2022-12-28T01:44:42.207Z,2.50
2022-12-28T01:44:53.278Z,3.70
2022-12-28T01:45:04.289Z,3.50
2022-12-28T01:45:15.065Z,3.00
2022-12-28T01:45:26.128Z,2.90
2022-12-28T01:45:37.195Z,3.20
2022-12-28T01:45:48.020Z,3.10
2022-12-28T01:45:58.673Z,2.50
2022-12-28T01:46:09.730Z,2.40
2022-12-28T01:46:20.499Z,3.20
2022-12-28T01:46:31.570Z,3.40
2022-12-28T01:46:42.551Z,2.30
2022-12-28T01:46:53.358Z,2.50
2022-12-28T01:47:04.448Z,2.70
2022-12-28T01:47:15.410Z,2.40
2022-12-28T01:47:26.209Z,2.20
2022-12-28T01:47:36.758Z,1.80
2022-12-28T01:47:47.738Z,2.40
2022-12-28T01:47:58.522Z,2.60
2022-12-28T01:48:09.603Z,3.10
2022-12-28T01:48:20.587Z,2.90
2022-12-28T01:48:31.382Z,3.60
2022-12-28T01:48:42.453Z,2.90
2022-12-28T01:48:53.459Z,2.50
2022-12-28T01:49:04.224Z,2.50
2022-12-28T01:49:15.299Z,2.30
2022-12-28T01:49:26.309Z,2.80
2022-12-28T01:49:37.090Z,3.10
2022-12-28T01:49:48.157Z,3.00
2022-12-28T01:49:59.141Z,2.40
2022-12-28T01:50:09.971Z,2.30
2022-12-28T01:50:20.496Z,2.30
2022-12-28T01:50:31.526Z,3.00
2022-12-28T01:50:42.287Z,3.10
2022-12-28T01:50:53.361Z,3.30
2022-12-28T01:51:04.387Z,2.10
2022-12-28T01:51:15.159Z,2.40
2022-12-28T01:51:26.219Z,2.90
2022-12-28T01:51:37.207Z,2.90
2022-12-28T01:51:47.994Z,2.90
2022-12-28T01:51:59.057Z,3.80
2022-12-28T01:52:10.064Z,3.70
2022-12-28T01:52:20.846Z,3.70
2022-12-28T01:52:31.948Z,2.50
2022-12-28T01:52:42.908Z,2.50
2022-12-28T01:52:53.714Z,2.30
2022-12-28T01:53:04.779Z,2.80
2022-12-28T01:53:15.753Z,2.60
2022-12-28T01:53:26.538Z,2.70
2022-12-28T01:53:37.598Z,1.90
2022-12-28T01:53:48.602Z,2.60
2022-12-28T01:53:59.389Z,2.30
2022-12-28T01:54:10.447Z,2.60
2022-12-28T01:54:21.423Z,2.80
2022-12-28T01:54:32.210Z,2.80
2022-12-28T01:54:43.285Z,2.10
2022-12-28T01:54:54.282Z,2.20
2022-12-28T01:55:05.089Z,2.60
2022-12-28T01:55:15.644Z,2.60
2022-12-28T01:55:26.600Z,2.40
2022-12-28T01:55:37.384Z,2.30
2022-12-28T01:55:48.467Z,2.40
2022-12-28T01:55:59.446Z,2.50
2022-12-28T01:56:10.234Z,2.40
2022-12-28T01:56:21.293Z,2.40
2022-12-28T01:56:32.295Z,2.60
2022-12-28T01:56:43.093Z,2.50
2022-12-28T01:56:54.174Z,2.20
2022-12-28T01:57:05.163Z,2.00
2022-12-28T01:57:15.940Z,2.10
2022-12-28T01:57:27.017Z,2.20
2022-12-28T01:57:37.993Z,2.00
2022-12-28T01:57:48.800Z,2.60
2022-12-28T01:57:59.867Z,3.10
2022-12-28T01:58:10.857Z,3.30
2022-12-28T01:58:21.649Z,3.20
2022-12-28T01:58:32.719Z,2.70
2022-12-28T01:58:43.724Z,2.40
2022-12-28T01:58:54.517Z,3.00
2022-12-28T01:59:05.576Z,3.00
2022-12-28T01:59:16.578Z,2.60
2022-12-28T01:59:27.367Z,2.30
2022-12-28T01:59:37.894Z,2.00
2022-12-28T01:59:48.904Z,2.40
2022-12-28T01:59:59.701Z,2.60
2022-12-28T02:00:10.767Z,2.80
2022-12-28T02:00:21.782Z,2.10
2022-12-28T02:00:32.574Z,1.90
2022-12-28T02:00:43.658Z,2.20
2022-12-28T02:00:54.864Z,2.80
2022-12-28T02:01:05.824Z,2.90
2022-12-28T02:01:16.493Z,2.80
2022-12-28T02:01:27.125Z,2.10
2022-12-28T02:01:38.066Z,2.00
2022-12-28T02:01:48.712Z,2.10
2022-12-28T02:01:59.433Z,2.60
2022-12-28T02:02:10.475Z,3.30
2022-12-28T02:02:21.234Z,3.30
2022-12-28T02:02:31.956Z,2.30
2022-12-28T02:02:42.964Z,2.50
2022-12-28T02:02:53.617Z,2.60
2022-12-28T02:03:04.114Z,2.60
2022-12-28T02:03:14.968Z,2.30
2022-12-28T02:03:25.466Z,2.20
2022-12-28T02:03:36.453Z,2.30
2022-12-28T02:03:47.238Z,2.20
2022-12-28T02:03:58.325Z,2.10
2022-12-28T02:04:09.294Z,2.10
2022-12-28T02:04:20.076Z,1.80
2022-12-28T02:04:31.190Z,1.80
2022-12-28T02:04:42.155Z,1.70
2022-12-28T02:04:52.938Z,1.70
2022-12-28T02:05:04.027Z,1.60
2022-12-28T02:05:15.007Z,1.70
2022-12-28T02:05:25.842Z,1.70
2022-12-28T02:05:36.380Z,2.60
2022-12-28T02:05:47.355Z,3.00
2022-12-28T02:05:58.157Z,3.60
2022-12-28T02:06:09.233Z,2.50
2022-12-28T02:06:20.206Z,2.60
2022-12-28T02:06:30.991Z,3.00
2022-12-28T02:06:42.083Z,2.90
2022-12-28T02:06:53.062Z,3.20
2022-12-28T02:07:03.845Z,2.90
2022-12-28T02:07:14.912Z,2.90
2022-12-28T02:07:25.907Z,2.40
2022-12-28T02:07:36.698Z,2.40
2022-12-28T02:07:47.793Z,2.60
2022-12-28T02:07:58.757Z,2.40
2022-12-28T02:08:09.540Z,2.10
2022-12-28T02:08:20.608Z,1.90
2022-12-28T02:08:31.594Z,2.80
2022-12-28T02:08:42.394Z,3.60
2022-12-28T02:08:53.497Z,3.20
2022-12-28T02:09:04.499Z,2.70
2022-12-28T02:09:15.238Z,4.10
2022-12-28T02:09:26.308Z,4.30
2022-12-28T02:09:37.302Z,3.00
2022-12-28T02:10:40.576Z,2.20
2022-12-28T02:10:40.721Z,1.90
2022-12-28T02:10:42.805Z,2.10
2022-12-28T02:10:43.316Z,2.10
2022-12-28T02:10:44.577Z,2.00
2022-12-28T02:10:46.049Z,1.90
2022-12-28T02:10:53.975Z,2.50
2022-12-28T02:11:05.056Z,2.80
2022-12-28T02:11:16.067Z,2.70
2022-12-28T02:11:26.857Z,2.80
2022-12-28T02:11:37.909Z,2.50
2022-12-28T02:11:48.905Z,2.40
2022-12-28T02:11:59.690Z,2.80
2022-12-28T02:12:10.776Z,3.30
2022-12-28T02:12:21.761Z,3.20
2022-12-28T02:12:32.596Z,2.60
2022-12-28T02:12:43.637Z,2.60
2022-12-28T02:12:54.650Z,2.10
2022-12-28T02:13:05.473Z,2.30
2022-12-28T02:13:16.025Z,2.40
2022-12-28T02:13:27.030Z,2.30
2022-12-28T02:13:37.808Z,2.30
2022-12-28T02:13:48.879Z,2.20
2022-12-28T02:13:59.853Z,2.20
2022-12-28T02:14:10.646Z,2.30
2022-12-28T02:14:21.726Z,3.10
2022-12-28T02:14:32.708Z,3.60
2022-12-28T02:14:43.485Z,3.70
2022-12-28T02:14:54.579Z,3.20
2022-12-28T02:15:05.563Z,2.90
2022-12-28T02:15:22.793Z,3.40
2022-12-28T02:15:28.418Z,3.00
2022-12-28T02:15:38.346Z,2.90
2022-12-28T02:15:49.159Z,2.50
2022-12-28T02:16:00.209Z,2.70
2022-12-28T02:16:11.209Z,2.10
2022-12-28T02:16:22.039Z,2.00
2022-12-28T02:16:33.137Z,2.10
2022-12-28T02:16:44.165Z,2.10
2022-12-28T02:16:54.957Z,2.30
2022-12-28T02:17:06.092Z,2.00
2022-12-28T02:17:16.504Z,2.60
2022-12-28T02:17:27.292Z,3.30
2022-12-28T02:17:38.376Z,3.40
2022-12-28T02:17:49.384Z,3.30
2022-12-28T02:18:00.177Z,3.30
2022-12-28T02:18:11.248Z,2.90
2022-12-28T02:18:22.222Z,2.10
2022-12-28T02:18:33.010Z,2.60
2022-12-28T02:18:44.067Z,3.10
2022-12-28T02:18:54.700Z,3.40
2022-12-28T02:19:05.492Z,3.00
2022-12-28T02:19:16.570Z,2.90
2022-12-28T02:19:27.566Z,3.00
2022-12-28T02:19:38.359Z,2.70
2022-12-28T02:19:49.406Z,2.30
2022-12-28T02:20:00.425Z,2.50
2022-12-28T02:20:11.206Z,3.00
2022-12-28T02:20:22.272Z,2.90
2022-12-28T02:20:33.304Z,2.50
2022-12-28T02:20:44.077Z,2.30
2022-12-28T02:20:54.596Z,2.30
2022-12-28T02:21:05.599Z,2.30
2022-12-28T02:21:16.391Z,2.60
2022-12-28T02:21:27.470Z,2.30
2022-12-28T02:21:38.455Z,2.30
2022-12-28T02:21:49.303Z,2.70
2022-12-28T02:21:59.781Z,2.90
2022-12-28T02:22:10.786Z,2.30
2022-12-28T02:22:21.588Z,2.20
2022-12-28T02:22:32.648Z,2.20
2022-12-28T02:22:43.627Z,2.30
2022-12-28T02:22:54.440Z,1.90
2022-12-28T02:23:05.015Z,1.90
2022-12-28T02:23:15.990Z,2.30
2022-12-28T02:23:26.787Z,2.20
2022-12-28T02:23:37.885Z,2.30
2022-12-28T02:23:48.853Z,1.80
2022-12-28T02:23:59.647Z,2.00
2022-12-28T02:24:10.711Z,2.30
2022-12-28T02:24:21.699Z,2.40
2022-12-28T02:24:32.492Z,2.50
2022-12-28T02:24:43.558Z,2.50
2022-12-28T02:25:11.357Z,2.10
2022-12-28T02:25:12.465Z,2.00
2022-12-28T02:25:17.519Z,2.10
2022-12-28T02:25:27.438Z,1.90